Weather at Brunchilly Airport

Public forecast

Using degrees Celsius for public forecast. Weather courtesy of forecast.io.

Closest aviation weather report (METAR) to Brunchilly Airport

Report is more than 6 hours old.

Closest report is Tennant Creek Airport, 49.2 nm (91.1 km) SSW. Retrieved 2022/05/16 23:07 UTC (7 days ago):

YTNK 162307Z AUTO 10017G28KT 9999 // NCD 22/06 Q1019

Closest aviation forecast (TAF) to Brunchilly Airport

Forecast is more than 12 hours old.

Closest forecast is Tennant Creek Airport, 49.2 nm (91.1 km) SSW. Retrieved 2022/05/11 20:33 UTC (13 days ago):

TAF YTNK 111915Z 1120/1208 12012KT CAVOK FM112200 12016KT CAVOK FM120300 13010KT CAVOK